sensor_id;sensor_type;location;lat;lon;timestamp;P1;durP1;ratioP1;P2;durP2;ratioP2
37097;SDS011;63608;49.572;12.348;2023-04-16T00:01:07;35.57;;;22.30;;
37097;SDS011;63608;49.572;12.348;2023-04-16T00:03:10;46.60;;;28.60;;
37097;SDS011;63608;49.572;12.348;2023-04-16T00:05:13;40.70;;;25.13;;
37097;SDS011;63608;49.572;12.348;2023-04-16T00:07:17;27.47;;;18.23;;
37097;SDS011;63608;49.572;12.348;2023-04-16T00:12:02;22.07;;;15.17;;
37097;SDS011;63608;49.572;12.348;2023-04-16T00:14:07;21.50;;;15.60;;
37097;SDS011;63608;49.572;12.348;2023-04-16T00:16:13;28.63;;;15.87;;
37097;SDS011;63608;49.572;12.348;2023-04-16T00:18:16;31.40;;;16.23;;
37097;SDS011;63608;49.572;12.348;2023-04-16T00:20:20;27.23;;;16.27;;
37097;SDS011;63608;49.572;12.348;2023-04-16T00:22:23;23.83;;;15.50;;
37097;SDS011;63608;49.572;12.348;2023-04-16T00:24:25;20.27;;;14.17;;
37097;SDS011;63608;49.572;12.348;2023-04-16T00:26:29;21.83;;;14.50;;
37097;SDS011;63608;49.572;12.348;2023-04-16T00:28:33;20.50;;;14.90;;
37097;SDS011;63608;49.572;12.348;2023-04-16T00:30:35;18.10;;;13.53;;
37097;SDS011;63608;49.572;12.348;2023-04-16T00:32:42;15.73;;;12.87;;
37097;SDS011;63608;49.572;12.348;2023-04-16T00:34:47;20.97;;;14.53;;
37097;SDS011;63608;49.572;12.348;2023-04-16T00:36:49;18.93;;;13.33;;
37097;SDS011;63608;49.572;12.348;2023-04-16T00:38:52;22.33;;;14.20;;
37097;SDS011;63608;49.572;12.348;2023-04-16T00:40:55;21.40;;;14.83;;
37097;SDS011;63608;49.572;12.348;2023-04-16T00:42:59;30.87;;;16.43;;
37097;SDS011;63608;49.572;12.348;2023-04-16T00:45:03;32.63;;;17.03;;
37097;SDS011;63608;49.572;12.348;2023-04-16T00:47:06;32.67;;;18.13;;
37097;SDS011;63608;49.572;12.348;2023-04-16T00:49:19;27.27;;;17.40;;
37097;SDS011;63608;49.572;12.348;2023-04-16T00:54:25;15.97;;;13.10;;
37097;SDS011;63608;49.572;12.348;2023-04-16T00:56:29;17.20;;;13.50;;
37097;SDS011;63608;49.572;12.348;2023-04-16T00:58:32;25.03;;;13.90;;
37097;SDS011;63608;49.572;12.348;2023-04-16T01:00:35;21.90;;;14.60;;
37097;SDS011;63608;49.572;12.348;2023-04-16T01:02:40;20.63;;;14.13;;
37097;SDS011;63608;49.572;12.348;2023-04-16T01:04:45;17.23;;;13.63;;
37097;SDS011;63608;49.572;12.348;2023-04-16T01:06:48;24.13;;;15.57;;
37097;SDS011;63608;49.572;12.348;2023-04-16T01:08:51;31.93;;;16.90;;
37097;SDS011;63608;49.572;12.348;2023-04-16T01:10:54;34.23;;;17.53;;
37097;SDS011;63608;49.572;12.348;2023-04-16T01:12:57;23.43;;;15.40;;
37097;SDS011;63608;49.572;12.348;2023-04-16T01:15:01;17.50;;;13.00;;
37097;SDS011;63608;49.572;12.348;2023-04-16T01:17:04;23.07;;;14.73;;
37097;SDS011;63608;49.572;12.348;2023-04-16T01:19:06;23.73;;;14.83;;
37097;SDS011;63608;49.572;12.348;2023-04-16T01:21:11;29.87;;;16.77;;
37097;SDS011;63608;49.572;12.348;2023-04-16T01:23:14;22.10;;;15.17;;
37097;SDS011;63608;49.572;12.348;2023-04-16T01:25:20;24.57;;;15.97;;
37097;SDS011;63608;49.572;12.348;2023-04-16T01:27:23;25.87;;;16.23;;
37097;SDS011;63608;49.572;12.348;2023-04-16T01:29:26;19.33;;;14.60;;
37097;SDS011;63608;49.572;12.348;2023-04-16T01:31:28;24.63;;;15.93;;
37097;SDS011;63608;49.572;12.348;2023-04-16T01:33:31;19.73;;;14.73;;
37097;SDS011;63608;49.572;12.348;2023-04-16T01:35:34;18.10;;;13.07;;
37097;SDS011;63608;49.572;12.348;2023-04-16T01:37:39;20.43;;;14.27;;
37097;SDS011;63608;49.572;12.348;2023-04-16T01:39:41;20.00;;;14.50;;
37097;SDS011;63608;49.572;12.348;2023-04-16T01:41:44;14.67;;;12.30;;
37097;SDS011;63608;49.572;12.348;2023-04-16T01:43:49;16.57;;;12.67;;
37097;SDS011;63608;49.572;12.348;2023-04-16T01:45:53;20.80;;;13.90;;
37097;SDS011;63608;49.572;12.348;2023-04-16T01:48:02;16.47;;;12.83;;
37097;SDS011;63608;49.572;12.348;2023-04-16T01:50:05;18.50;;;13.60;;
37097;SDS011;63608;49.572;12.348;2023-04-16T01:52:08;26.13;;;13.90;;
37097;SDS011;63608;49.572;12.348;2023-04-16T01:54:13;30.93;;;15.60;;
37097;SDS011;63608;49.572;12.348;2023-04-16T01:56:16;21.13;;;11.77;;
37097;SDS011;63608;49.572;12.348;2023-04-16T01:58:18;14.47;;;12.00;;
37097;SDS011;63608;49.572;12.348;2023-04-16T02:00:24;16.30;;;12.60;;
37097;SDS011;63608;49.572;12.348;2023-04-16T02:02:31;16.17;;;12.10;;
37097;SDS011;63608;49.572;12.348;2023-04-16T02:04:36;23.93;;;14.50;;
37097;SDS011;63608;49.572;12.348;2023-04-16T02:06:39;20.70;;;13.40;;
37097;SDS011;63608;49.572;12.348;2023-04-16T02:08:42;13.40;;;11.00;;
37097;SDS011;63608;49.572;12.348;2023-04-16T02:10:49;29.73;;;15.30;;
37097;SDS011;63608;49.572;12.348;2023-04-16T02:12:55;23.10;;;14.73;;
37097;SDS011;63608;49.572;12.348;2023-04-16T02:14:58;16.90;;;12.07;;
37097;SDS011;63608;49.572;12.348;2023-04-16T02:17:01;20.13;;;13.20;;
37097;SDS011;63608;49.572;12.348;2023-04-16T02:19:04;21.23;;;14.20;;
37097;SDS011;63608;49.572;12.348;2023-04-16T02:21:08;26.57;;;14.50;;
37097;SDS011;63608;49.572;12.348;2023-04-16T02:23:14;25.67;;;14.60;;
37097;SDS011;63608;49.572;12.348;2023-04-16T02:25:17;21.30;;;13.47;;
37097;SDS011;63608;49.572;12.348;2023-04-16T02:27:22;17.13;;;13.67;;
37097;SDS011;63608;49.572;12.348;2023-04-16T02:29:25;21.10;;;14.73;;
37097;SDS011;63608;49.572;12.348;2023-04-16T02:31:28;17.93;;;13.10;;
37097;SDS011;63608;49.572;12.348;2023-04-16T02:33:31;21.47;;;14.20;;
37097;SDS011;63608;49.572;12.348;2023-04-16T02:35:35;32.70;;;17.90;;
37097;SDS011;63608;49.572;12.348;2023-04-16T02:37:38;20.27;;;14.43;;
37097;SDS011;63608;49.572;12.348;2023-04-16T02:39:41;25.30;;;16.93;;
37097;SDS011;63608;49.572;12.348;2023-04-16T02:41:45;24.10;;;16.63;;
37097;SDS011;63608;49.572;12.348;2023-04-16T02:43:49;27.40;;;19.03;;
37097;SDS011;63608;49.572;12.348;2023-04-16T02:45:52;24.13;;;17.70;;
37097;SDS011;63608;49.572;12.348;2023-04-16T02:47:58;22.60;;;15.93;;
37097;SDS011;63608;49.572;12.348;2023-04-16T02:50:01;18.90;;;12.83;;
37097;SDS011;63608;49.572;12.348;2023-04-16T02:52:05;26.93;;;14.80;;
37097;SDS011;63608;49.572;12.348;2023-04-16T02:54:08;16.37;;;12.40;;
37097;SDS011;63608;49.572;12.348;2023-04-16T02:56:10;21.03;;;13.97;;
37097;SDS011;63608;49.572;12.348;2023-04-16T02:58:16;28.00;;;16.33;;
37097;SDS011;63608;49.572;12.348;2023-04-16T03:00:20;22.80;;;15.53;;
37097;SDS011;63608;49.572;12.348;2023-04-16T03:02:25;26.10;;;15.93;;
37097;SDS011;63608;49.572;12.348;2023-04-16T03:04:31;26.10;;;16.60;;
37097;SDS011;63608;49.572;12.348;2023-04-16T03:06:34;26.93;;;17.03;;
37097;SDS011;63608;49.572;12.348;2023-04-16T03:08:37;22.13;;;15.37;;
37097;SDS011;63608;49.572;12.348;2023-04-16T03:10:40;25.17;;;16.73;;
37097;SDS011;63608;49.572;12.348;2023-04-16T03:12:43;23.67;;;15.47;;
37097;SDS011;63608;49.572;12.348;2023-04-16T03:14:46;26.13;;;15.50;;
37097;SDS011;63608;49.572;12.348;2023-04-16T03:16:50;40.10;;;18.00;;
37097;SDS011;63608;49.572;12.348;2023-04-16T03:18:53;21.17;;;15.13;;
37097;SDS011;63608;49.572;12.348;2023-04-16T03:20:56;33.30;;;20.40;;
37097;SDS011;63608;49.572;12.348;2023-04-16T03:23:02;21.30;;;14.70;;
37097;SDS011;63608;49.572;12.348;2023-04-16T03:25:05;18.97;;;14.33;;
37097;SDS011;63608;49.572;12.348;2023-04-16T03:27:11;22.60;;;14.53;;
37097;SDS011;63608;49.572;12.348;2023-04-16T03:29:14;20.30;;;14.10;;
37097;SDS011;63608;49.572;12.348;2023-04-16T03:33:45;40.00;;;18.30;;
37097;SDS011;63608;49.572;12.348;2023-04-16T03:35:56;23.43;;;15.97;;
37097;SDS011;63608;49.572;12.348;2023-04-16T03:37:59;26.93;;;16.80;;
37097;SDS011;63608;49.572;12.348;2023-04-16T03:40:02;20.83;;;14.57;;
37097;SDS011;63608;49.572;12.348;2023-04-16T03:42:06;32.37;;;18.03;;
37097;SDS011;63608;49.572;12.348;2023-04-16T03:44:09;42.17;;;20.10;;
37097;SDS011;63608;49.572;12.348;2023-04-16T03:48:50;27.20;;;17.83;;
37097;SDS011;63608;49.572;12.348;2023-04-16T03:50:53;33.80;;;19.37;;
37097;SDS011;63608;49.572;12.348;2023-04-16T03:52:57;34.80;;;20.57;;
37097;SDS011;63608;49.572;12.348;2023-04-16T03:55:00;41.27;;;21.90;;
37097;SDS011;63608;49.572;12.348;2023-04-16T03:57:04;37.80;;;21.17;;
37097;SDS011;63608;49.572;12.348;2023-04-16T03:59:07;42.53;;;21.60;;
37097;SDS011;63608;49.572;12.348;2023-04-16T04:01:12;27.80;;;18.50;;
37097;SDS011;63608;49.572;12.348;2023-04-16T04:03:15;29.87;;;19.80;;
37097;SDS011;63608;49.572;12.348;2023-04-16T04:05:22;24.77;;;17.40;;
37097;SDS011;63608;49.572;12.348;2023-04-16T04:07:26;30.97;;;18.20;;
37097;SDS011;63608;49.572;12.348;2023-04-16T04:09:31;34.30;;;20.27;;
37097;SDS011;63608;49.572;12.348;2023-04-16T04:11:36;35.60;;;19.77;;
37097;SDS011;63608;49.572;12.348;2023-04-16T04:13:38;37.73;;;20.70;;
37097;SDS011;63608;49.572;12.348;2023-04-16T04:15:41;42.03;;;20.57;;
37097;SDS011;63608;49.572;12.348;2023-04-16T04:17:45;31.70;;;18.97;;
37097;SDS011;63608;49.572;12.348;2023-04-16T04:19:47;23.00;;;16.50;;
37097;SDS011;63608;49.572;12.348;2023-04-16T04:21:53;23.07;;;16.60;;
37097;SDS011;63608;49.572;12.348;2023-04-16T04:24:13;24.00;;;16.53;;
37097;SDS011;63608;49.572;12.348;2023-04-16T04:26:15;31.30;;;18.53;;
37097;SDS011;63608;49.572;12.348;2023-04-16T04:28:18;30.97;;;19.10;;
37097;SDS011;63608;49.572;12.348;2023-04-16T04:30:21;26.90;;;16.40;;
37097;SDS011;63608;49.572;12.348;2023-04-16T04:32:27;26.70;;;16.63;;
37097;SDS011;63608;49.572;12.348;2023-04-16T04:34:31;24.10;;;16.50;;
37097;SDS011;63608;49.572;12.348;2023-04-16T04:36:33;30.13;;;16.77;;
37097;SDS011;63608;49.572;12.348;2023-04-16T04:38:41;31.33;;;18.27;;
37097;SDS011;63608;49.572;12.348;2023-04-16T04:40:44;30.13;;;18.40;;
37097;SDS011;63608;49.572;12.348;2023-04-16T04:42:47;30.93;;;18.77;;
37097;SDS011;63608;49.572;12.348;2023-04-16T04:44:55;44.67;;;21.90;;
37097;SDS011;63608;49.572;12.348;2023-04-16T04:46:58;36.53;;;20.73;;
37097;SDS011;63608;49.572;12.348;2023-04-16T04:49:01;37.17;;;20.70;;
37097;SDS011;63608;49.572;12.348;2023-04-16T04:51:04;41.37;;;25.50;;
37097;SDS011;63608;49.572;12.348;2023-04-16T04:53:08;33.83;;;21.17;;
37097;SDS011;63608;49.572;12.348;2023-04-16T04:55:16;32.07;;;21.90;;
37097;SDS011;63608;49.572;12.348;2023-04-16T04:57:19;33.03;;;20.37;;
37097;SDS011;63608;49.572;12.348;2023-04-16T04:59:23;28.10;;;18.43;;
37097;SDS011;63608;49.572;12.348;2023-04-16T05:01:26;29.47;;;18.97;;
37097;SDS011;63608;49.572;12.348;2023-04-16T05:03:29;35.13;;;21.00;;
37097;SDS011;63608;49.572;12.348;2023-04-16T05:05:33;36.47;;;23.53;;
37097;SDS011;63608;49.572;12.348;2023-04-16T05:07:39;50.80;;;24.30;;
37097;SDS011;63608;49.572;12.348;2023-04-16T05:09:44;29.10;;;19.53;;
37097;SDS011;63608;49.572;12.348;2023-04-16T05:11:48;31.63;;;19.27;;
37097;SDS011;63608;49.572;12.348;2023-04-16T05:13:52;38.30;;;21.33;;
37097;SDS011;63608;49.572;12.348;2023-04-16T05:15:55;26.20;;;18.20;;
37097;SDS011;63608;49.572;12.348;2023-04-16T05:17:58;33.43;;;19.97;;
37097;SDS011;63608;49.572;12.348;2023-04-16T05:20:01;33.60;;;19.87;;
37097;SDS011;63608;49.572;12.348;2023-04-16T05:22:04;28.23;;;19.00;;
37097;SDS011;63608;49.572;12.348;2023-04-16T05:24:10;28.97;;;18.67;;
37097;SDS011;63608;49.572;12.348;2023-04-16T05:26:16;26.20;;;18.40;;
37097;SDS011;63608;49.572;12.348;2023-04-16T05:28:21;27.23;;;17.83;;
37097;SDS011;63608;49.572;12.348;2023-04-16T05:30:24;32.13;;;19.10;;
37097;SDS011;63608;49.572;12.348;2023-04-16T05:32:27;30.27;;;18.97;;
37097;SDS011;63608;49.572;12.348;2023-04-16T05:34:30;32.00;;;21.47;;
37097;SDS011;63608;49.572;12.348;2023-04-16T05:36:32;30.60;;;18.87;;
37097;SDS011;63608;49.572;12.348;2023-04-16T05:38:34;32.20;;;20.60;;
37097;SDS011;63608;49.572;12.348;2023-04-16T05:40:36;37.10;;;22.07;;
37097;SDS011;63608;49.572;12.348;2023-04-16T05:42:39;32.93;;;21.20;;
37097;SDS011;63608;49.572;12.348;2023-04-16T05:44:42;30.33;;;20.67;;
37097;SDS011;63608;49.572;12.348;2023-04-16T05:46:44;29.03;;;21.20;;
37097;SDS011;63608;49.572;12.348;2023-04-16T05:48:47;30.53;;;19.20;;
37097;SDS011;63608;49.572;12.348;2023-04-16T05:50:49;23.30;;;17.50;;
37097;SDS011;63608;49.572;12.348;2023-04-16T05:52:51;25.07;;;18.33;;
37097;SDS011;63608;49.572;12.348;2023-04-16T05:54:53;28.27;;;17.73;;
37097;SDS011;63608;49.572;12.348;2023-04-16T05:56:55;22.13;;;16.30;;
37097;SDS011;63608;49.572;12.348;2023-04-16T05:58:58;25.80;;;18.23;;
37097;SDS011;63608;49.572;12.348;2023-04-16T06:01:01;28.07;;;19.27;;
37097;SDS011;63608;49.572;12.348;2023-04-16T06:03:04;31.37;;;17.90;;
37097;SDS011;63608;49.572;12.348;2023-04-16T06:05:06;29.77;;;17.70;;
37097;SDS011;63608;49.572;12.348;2023-04-16T06:07:10;26.13;;;17.10;;
37097;SDS011;63608;49.572;12.348;2023-04-16T06:09:21;25.00;;;18.20;;
37097;SDS011;63608;49.572;12.348;2023-04-16T06:11:24;27.70;;;17.90;;
37097;SDS011;63608;49.572;12.348;2023-04-16T06:13:26;31.07;;;19.40;;
37097;SDS011;63608;49.572;12.348;2023-04-16T06:15:38;22.30;;;15.80;;
37097;SDS011;63608;49.572;12.348;2023-04-16T06:17:44;22.93;;;16.37;;
37097;SDS011;63608;49.572;12.348;2023-04-16T06:19:47;22.10;;;16.20;;
37097;SDS011;63608;49.572;12.348;2023-04-16T06:21:49;21.80;;;15.63;;
37097;SDS011;63608;49.572;12.348;2023-04-16T06:23:53;22.50;;;16.67;;
37097;SDS011;63608;49.572;12.348;2023-04-16T06:25:57;28.77;;;18.33;;
37097;SDS011;63608;49.572;12.348;2023-04-16T06:27:59;23.80;;;17.10;;
37097;SDS011;63608;49.572;12.348;2023-04-16T06:30:02;21.57;;;17.13;;
37097;SDS011;63608;49.572;12.348;2023-04-16T06:32:05;20.50;;;15.10;;
37097;SDS011;63608;49.572;12.348;2023-04-16T06:34:10;24.23;;;17.33;;
37097;SDS011;63608;49.572;12.348;2023-04-16T06:36:12;19.23;;;14.63;;
37097;SDS011;63608;49.572;12.348;2023-04-16T06:38:15;17.83;;;14.50;;
37097;SDS011;63608;49.572;12.348;2023-04-16T06:40:18;20.47;;;15.40;;
37097;SDS011;63608;49.572;12.348;2023-04-16T06:42:20;20.77;;;14.30;;
37097;SDS011;63608;49.572;12.348;2023-04-16T06:44:22;16.87;;;13.77;;
37097;SDS011;63608;49.572;12.348;2023-04-16T06:46:24;24.33;;;16.70;;
37097;SDS011;63608;49.572;12.348;2023-04-16T06:48:27;16.23;;;14.20;;
37097;SDS011;63608;49.572;12.348;2023-04-16T06:50:34;16.90;;;13.47;;
37097;SDS011;63608;49.572;12.348;2023-04-16T06:52:37;15.93;;;13.53;;
37097;SDS011;63608;49.572;12.348;2023-04-16T06:54:42;13.23;;;11.40;;
37097;SDS011;63608;49.572;12.348;2023-04-16T06:56:45;16.50;;;13.50;;
37097;SDS011;63608;49.572;12.348;2023-04-16T06:58:50;12.87;;;11.07;;
37097;SDS011;63608;49.572;12.348;2023-04-16T07:00:58;15.23;;;12.67;;
37097;SDS011;63608;49.572;12.348;2023-04-16T07:03:01;12.87;;;11.20;;
37097;SDS011;63608;49.572;12.348;2023-04-16T07:05:08;13.17;;;10.77;;
37097;SDS011;63608;49.572;12.348;2023-04-16T07:07:12;14.03;;;12.53;;
37097;SDS011;63608;49.572;12.348;2023-04-16T07:09:15;14.87;;;12.97;;
37097;SDS011;63608;49.572;12.348;2023-04-16T07:11:20;13.30;;;11.50;;
37097;SDS011;63608;49.572;12.348;2023-04-16T07:13:22;16.00;;;13.63;;
37097;SDS011;63608;49.572;12.348;2023-04-16T07:15:25;13.60;;;11.70;;
37097;SDS011;63608;49.572;12.348;2023-04-16T07:17:28;16.30;;;13.40;;
37097;SDS011;63608;49.572;12.348;2023-04-16T07:19:31;14.27;;;12.77;;
37097;SDS011;63608;49.572;12.348;2023-04-16T07:21:38;16.37;;;14.00;;
37097;SDS011;63608;49.572;12.348;2023-04-16T07:23:43;16.60;;;14.50;;
37097;SDS011;63608;49.572;12.348;2023-04-16T07:25:45;15.50;;;13.80;;
37097;SDS011;63608;49.572;12.348;2023-04-16T07:27:48;18.43;;;15.07;;
37097;SDS011;63608;49.572;12.348;2023-04-16T07:29:53;17.07;;;14.90;;
37097;SDS011;63608;49.572;12.348;2023-04-16T07:31:56;19.67;;;14.97;;
37097;SDS011;63608;49.572;12.348;2023-04-16T07:33:59;16.23;;;14.50;;
37097;SDS011;63608;49.572;12.348;2023-04-16T07:36:02;20.37;;;15.03;;
37097;SDS011;63608;49.572;12.348;2023-04-16T07:38:05;17.87;;;14.87;;
37097;SDS011;63608;49.572;12.348;2023-04-16T07:40:09;18.70;;;15.60;;
37097;SDS011;63608;49.572;12.348;2023-04-16T07:42:12;15.97;;;14.27;;
37097;SDS011;63608;49.572;12.348;2023-04-16T07:44:16;19.40;;;15.37;;
37097;SDS011;63608;49.572;12.348;2023-04-16T07:46:18;19.30;;;14.17;;
37097;SDS011;63608;49.572;12.348;2023-04-16T07:48:21;17.53;;;14.80;;
37097;SDS011;63608;49.572;12.348;2023-04-16T07:50:24;18.40;;;14.73;;
37097;SDS011;63608;49.572;12.348;2023-04-16T07:52:27;15.60;;;13.23;;
37097;SDS011;63608;49.572;12.348;2023-04-16T07:54:30;14.47;;;12.93;;
37097;SDS011;63608;49.572;12.348;2023-04-16T07:56:35;15.37;;;13.63;;
37097;SDS011;63608;49.572;12.348;2023-04-16T07:58:41;14.47;;;12.97;;
37097;SDS011;63608;49.572;12.348;2023-04-16T08:00:45;15.53;;;12.80;;
37097;SDS011;63608;49.572;12.348;2023-04-16T08:02:48;15.20;;;13.60;;
37097;SDS011;63608;49.572;12.348;2023-04-16T08:04:51;15.77;;;13.03;;
37097;SDS011;63608;49.572;12.348;2023-04-16T08:06:54;16.50;;;13.27;;
37097;SDS011;63608;49.572;12.348;2023-04-16T08:08:59;13.33;;;12.00;;
37097;SDS011;63608;49.572;12.348;2023-04-16T08:11:02;15.00;;;12.90;;
37097;SDS011;63608;49.572;12.348;2023-04-16T08:13:06;12.87;;;11.57;;
37097;SDS011;63608;49.572;12.348;2023-04-16T08:15:10;15.50;;;12.07;;
37097;SDS011;63608;49.572;12.348;2023-04-16T08:17:15;14.50;;;13.10;;
37097;SDS011;63608;49.572;12.348;2023-04-16T08:19:19;12.30;;;11.10;;
37097;SDS011;63608;49.572;12.348;2023-04-16T08:21:21;10.60;;;9.50;;
37097;SDS011;63608;49.572;12.348;2023-04-16T08:23:24;11.20;;;9.97;;
37097;SDS011;63608;49.572;12.348;2023-04-16T08:25:29;11.13;;;9.90;;
37097;SDS011;63608;49.572;12.348;2023-04-16T08:27:31;11.03;;;9.97;;
37097;SDS011;63608;49.572;12.348;2023-04-16T08:29:37;9.83;;;8.90;;
37097;SDS011;63608;49.572;12.348;2023-04-16T08:31:41;9.57;;;8.67;;
37097;SDS011;63608;49.572;12.348;2023-04-16T08:33:46;9.50;;;8.60;;
37097;SDS011;63608;49.572;12.348;2023-04-16T08:35:49;12.50;;;11.20;;
37097;SDS011;63608;49.572;12.348;2023-04-16T08:37:52;10.40;;;9.40;;
37097;SDS011;63608;49.572;12.348;2023-04-16T08:39:57;8.53;;;7.83;;
37097;SDS011;63608;49.572;12.348;2023-04-16T08:42:05;9.80;;;8.90;;
37097;SDS011;63608;49.572;12.348;2023-04-16T08:44:17;9.33;;;8.53;;
37097;SDS011;63608;49.572;12.348;2023-04-16T08:46:23;9.40;;;8.40;;
37097;SDS011;63608;49.572;12.348;2023-04-16T08:48:27;7.70;;;7.00;;
37097;SDS011;63608;49.572;12.348;2023-04-16T08:50:35;8.97;;;8.07;;
37097;SDS011;63608;49.572;12.348;2023-04-16T08:52:44;8.00;;;7.20;;
37097;SDS011;63608;49.572;12.348;2023-04-16T08:54:51;8.73;;;7.93;;
37097;SDS011;63608;49.572;12.348;2023-04-16T08:57:02;7.33;;;6.60;;
37097;SDS011;63608;49.572;12.348;2023-04-16T08:59:08;6.77;;;6.27;;
37097;SDS011;63608;49.572;12.348;2023-04-16T09:01:15;7.10;;;6.50;;
37097;SDS011;63608;49.572;12.348;2023-04-16T09:03:21;7.23;;;6.63;;
37097;SDS011;63608;49.572;12.348;2023-04-16T09:05:26;6.77;;;6.20;;
37097;SDS011;63608;49.572;12.348;2023-04-16T09:07:30;8.10;;;7.40;;
37097;SDS011;63608;49.572;12.348;2023-04-16T09:09:33;8.70;;;7.80;;
37097;SDS011;63608;49.572;12.348;2023-04-16T09:11:43;13.80;;;12.50;;
37097;SDS011;63608;49.572;12.348;2023-04-16T09:13:47;8.00;;;7.30;;
37097;SDS011;63608;49.572;12.348;2023-04-16T09:15:51;10.13;;;9.23;;
37097;SDS011;63608;49.572;12.348;2023-04-16T09:17:56;8.43;;;7.73;;
37097;SDS011;63608;49.572;12.348;2023-04-16T09:20:00;8.00;;;7.30;;
37097;SDS011;63608;49.572;12.348;2023-04-16T09:22:05;7.90;;;7.20;;
37097;SDS011;63608;49.572;12.348;2023-04-16T09:24:07;12.93;;;11.40;;
37097;SDS011;63608;49.572;12.348;2023-04-16T09:26:10;19.80;;;17.40;;
37097;SDS011;63608;49.572;12.348;2023-04-16T09:30:41;11.77;;;10.57;;
37097;SDS011;63608;49.572;12.348;2023-04-16T09:32:44;11.50;;;10.30;;
37097;SDS011;63608;49.572;12.348;2023-04-16T09:34:54;9.50;;;8.60;;
37097;SDS011;63608;49.572;12.348;2023-04-16T09:39:19;9.17;;;8.33;;
37097;SDS011;63608;49.572;12.348;2023-04-16T09:41:27;12.20;;;11.00;;
37097;SDS011;63608;49.572;12.348;2023-04-16T09:43:32;8.67;;;7.87;;
37097;SDS011;63608;49.572;12.348;2023-04-16T09:45:39;8.00;;;7.30;;
37097;SDS011;63608;49.572;12.348;2023-04-16T09:47:49;7.50;;;6.90;;
37097;SDS011;63608;49.572;12.348;2023-04-16T09:49:51;8.20;;;7.60;;
37097;SDS011;63608;49.572;12.348;2023-04-16T09:51:55;7.30;;;6.70;;
37097;SDS011;63608;49.572;12.348;2023-04-16T09:56:59;9.70;;;8.80;;
37097;SDS011;63608;49.572;12.348;2023-04-16T09:59:01;8.10;;;7.40;;
37097;SDS011;63608;49.572;12.348;2023-04-16T10:01:06;7.93;;;7.23;;
37097;SDS011;63608;49.572;12.348;2023-04-16T10:03:28;9.40;;;8.60;;
37097;SDS011;63608;49.572;12.348;2023-04-16T10:05:36;9.27;;;8.37;;
37097;SDS011;63608;49.572;12.348;2023-04-16T10:07:42;12.53;;;11.37;;
37097;SDS011;63608;49.572;12.348;2023-04-16T10:09:45;10.37;;;9.37;;
37097;SDS011;63608;49.572;12.348;2023-04-16T10:11:52;10.20;;;8.10;;
37097;SDS011;63608;49.572;12.348;2023-04-16T10:13:56;8.33;;;7.63;;
37097;SDS011;63608;49.572;12.348;2023-04-16T10:15:58;14.83;;;12.23;;
37097;SDS011;63608;49.572;12.348;2023-04-16T10:18:01;7.90;;;7.20;;
37097;SDS011;63608;49.572;12.348;2023-04-16T10:20:07;8.43;;;7.63;;
37097;SDS011;63608;49.572;12.348;2023-04-16T10:22:11;8.17;;;7.47;;
37097;SDS011;63608;49.572;12.348;2023-04-16T10:24:15;7.30;;;6.70;;
37097;SDS011;63608;49.572;12.348;2023-04-16T10:26:18;8.33;;;7.63;;
37097;SDS011;63608;49.572;12.348;2023-04-16T10:28:21;7.80;;;7.10;;
37097;SDS011;63608;49.572;12.348;2023-04-16T10:30:30;7.10;;;6.50;;
37097;SDS011;63608;49.572;12.348;2023-04-16T10:32:36;8.70;;;7.90;;
37097;SDS011;63608;49.572;12.348;2023-04-16T10:34:41;14.50;;;13.00;;
37097;SDS011;63608;49.572;12.348;2023-04-16T10:36:51;7.53;;;6.80;;
37097;SDS011;63608;49.572;12.348;2023-04-16T10:38:57;13.27;;;11.93;;
37097;SDS011;63608;49.572;12.348;2023-04-16T10:41:03;9.23;;;8.43;;
37097;SDS011;63608;49.572;12.348;2023-04-16T10:43:08;7.30;;;6.60;;
37097;SDS011;63608;49.572;12.348;2023-04-16T10:45:16;6.50;;;6.00;;
37097;SDS011;63608;49.572;12.348;2023-04-16T10:47:28;6.73;;;6.13;;
37097;SDS011;63608;49.572;12.348;2023-04-16T10:49:31;6.57;;;6.07;;
37097;SDS011;63608;49.572;12.348;2023-04-16T10:51:41;5.97;;;5.43;;
37097;SDS011;63608;49.572;12.348;2023-04-16T10:53:43;6.17;;;5.67;;
37097;SDS011;63608;49.572;12.348;2023-04-16T10:55:55;5.97;;;5.40;;
37097;SDS011;63608;49.572;12.348;2023-04-16T10:58:01;5.70;;;5.30;;
37097;SDS011;63608;49.572;12.348;2023-04-16T11:00:11;5.63;;;5.23;;
37097;SDS011;63608;49.572;12.348;2023-04-16T11:02:31;7.70;;;7.00;;
37097;SDS011;63608;49.572;12.348;2023-04-16T11:04:41;6.87;;;6.30;;
37097;SDS011;63608;49.572;12.348;2023-04-16T11:06:51;26.07;;;20.90;;
37097;SDS011;63608;49.572;12.348;2023-04-16T11:09:01;18.80;;;15.80;;
37097;SDS011;63608;49.572;12.348;2023-04-16T11:11:06;5.90;;;5.40;;
37097;SDS011;63608;49.572;12.348;2023-04-16T11:13:13;5.50;;;5.10;;
37097;SDS011;63608;49.572;12.348;2023-04-16T11:15:16;6.83;;;5.60;;
37097;SDS011;63608;49.572;12.348;2023-04-16T11:17:26;6.50;;;6.00;;
37097;SDS011;63608;49.572;12.348;2023-04-16T11:19:35;6.53;;;6.03;;
37097;SDS011;63608;49.572;12.348;2023-04-16T11:21:45;6.40;;;5.90;;
37097;SDS011;63608;49.572;12.348;2023-04-16T11:23:49;6.47;;;5.97;;
37097;SDS011;63608;49.572;12.348;2023-04-16T11:25:56;6.30;;;5.80;;
37097;SDS011;63608;49.572;12.348;2023-04-16T11:28:00;6.63;;;6.00;;
37097;SDS011;63608;49.572;12.348;2023-04-16T11:30:03;6.03;;;5.53;;
37097;SDS011;63608;49.572;12.348;2023-04-16T11:32:20;5.47;;;5.07;;
37097;SDS011;63608;49.572;12.348;2023-04-16T11:34:46;5.57;;;5.17;;
37097;SDS011;63608;49.572;12.348;2023-04-16T11:36:50;5.70;;;5.30;;
37097;SDS011;63608;49.572;12.348;2023-04-16T11:39:04;5.43;;;5.03;;
37097;SDS011;63608;49.572;12.348;2023-04-16T11:41:09;5.87;;;5.47;;
37097;SDS011;63608;49.572;12.348;2023-04-16T11:43:23;6.30;;;5.80;;
37097;SDS011;63608;49.572;12.348;2023-04-16T11:45:31;5.90;;;5.50;;
37097;SDS011;63608;49.572;12.348;2023-04-16T11:47:41;6.60;;;6.00;;
37097;SDS011;63608;49.572;12.348;2023-04-16T11:49:53;6.37;;;5.73;;
37097;SDS011;63608;49.572;12.348;2023-04-16T11:51:56;9.87;;;8.93;;
37097;SDS011;63608;49.572;12.348;2023-04-16T11:53:59;6.23;;;5.73;;
37097;SDS011;63608;49.572;12.348;2023-04-16T11:56:04;8.33;;;7.53;;
37097;SDS011;63608;49.572;12.348;2023-04-16T11:58:10;7.53;;;6.93;;
37097;SDS011;63608;49.572;12.348;2023-04-16T12:00:15;5.90;;;5.40;;
37097;SDS011;63608;49.572;12.348;2023-04-16T12:02:32;5.47;;;5.07;;
37097;SDS011;63608;49.572;12.348;2023-04-16T12:04:35;12.23;;;11.07;;
37097;SDS011;63608;49.572;12.348;2023-04-16T12:06:39;10.40;;;9.40;;
37097;SDS011;63608;49.572;12.348;2023-04-16T12:08:46;6.27;;;5.67;;
37097;SDS011;63608;49.572;12.348;2023-04-16T12:10:52;7.87;;;5.30;;
37097;SDS011;63608;49.572;12.348;2023-04-16T12:13:10;5.57;;;5.17;;
37097;SDS011;63608;49.572;12.348;2023-04-16T12:15:12;5.80;;;5.40;;
37097;SDS011;63608;49.572;12.348;2023-04-16T12:17:15;6.60;;;6.03;;
37097;SDS011;63608;49.572;12.348;2023-04-16T12:19:18;6.90;;;5.10;;
37097;SDS011;63608;49.572;12.348;2023-04-16T12:21:21;5.30;;;4.90;;
37097;SDS011;63608;49.572;12.348;2023-04-16T12:23:26;5.80;;;5.40;;